sensor_id;sensor_type;location;lat;lon;timestamp;pressure;altitude;pressure_sealevel;temperature;humidity
77897;BME280;67092;64.282;21.056;2023-07-13T00:00:24;100730.12;;;24.71;31.03
77897;BME280;67092;64.282;21.056;2023-07-13T00:02:49;100728.68;;;24.78;31.22
77897;BME280;67092;64.282;21.056;2023-07-13T00:05:15;100724.66;;;25.08;30.86
77897;BME280;67092;64.282;21.056;2023-07-13T00:07:41;100721.05;;;25.00;30.91
77897;BME280;67092;64.282;21.056;2023-07-13T00:10:07;100717.05;;;24.82;31.12
77897;BME280;67092;64.282;21.056;2023-07-13T00:12:33;100714.10;;;24.96;30.93
77897;BME280;67092;64.282;21.056;2023-07-13T00:14:58;100712.87;;;24.76;30.84
77897;BME280;67092;64.282;21.056;2023-07-13T00:17:23;100713.10;;;24.92;30.95
77897;BME280;67092;64.282;21.056;2023-07-13T00:19:48;100714.84;;;24.87;30.97
77897;BME280;67092;64.282;21.056;2023-07-13T00:22:14;100712.21;;;25.02;30.82
77897;BME280;67092;64.282;21.056;2023-07-13T00:24:39;100709.37;;;24.71;30.86
77897;BME280;67092;64.282;21.056;2023-07-13T00:27:05;100706.83;;;24.54;31.06
77897;BME280;67092;64.282;21.056;2023-07-13T00:29:30;100703.10;;;24.83;31.01
77897;BME280;67092;64.282;21.056;2023-07-13T00:31:56;100700.75;;;25.12;30.95
77897;BME280;67092;64.282;21.056;2023-07-13T00:34:22;100700.85;;;24.73;31.14
77897;BME280;67092;64.282;21.056;2023-07-13T00:36:47;100702.93;;;24.98;31.15
77897;BME280;67092;64.282;21.056;2023-07-13T00:39:13;100702.65;;;24.42;31.28
77897;BME280;67092;64.282;21.056;2023-07-13T00:41:38;100703.04;;;24.33;31.35
77897;BME280;67092;64.282;21.056;2023-07-13T00:44:04;100702.68;;;24.72;31.23
77897;BME280;67092;64.282;21.056;2023-07-13T00:46:31;100701.33;;;24.79;31.19
77897;BME280;67092;64.282;21.056;2023-07-13T00:48:57;100698.37;;;24.46;31.25
77897;BME280;67092;64.282;21.056;2023-07-13T00:51:26;100699.89;;;24.97;31.23
77897;BME280;67092;64.282;21.056;2023-07-13T00:53:46;100692.54;;;24.68;31.30
77897;BME280;67092;64.282;21.056;2023-07-13T00:56:12;100690.35;;;24.45;31.29
77897;BME280;67092;64.282;21.056;2023-07-13T00:58:37;100690.09;;;24.51;31.21
77897;BME280;67092;64.282;21.056;2023-07-13T01:01:03;100688.99;;;24.53;31.15
77897;BME280;67092;64.282;21.056;2023-07-13T01:03:28;100686.14;;;24.52;31.48
77897;BME280;67092;64.282;21.056;2023-07-13T01:05:54;100686.07;;;23.90;31.34
77897;BME280;67092;64.282;21.056;2023-07-13T01:08:20;100689.99;;;24.76;30.86
77897;BME280;67092;64.282;21.056;2023-07-13T01:10:52;100684.50;;;24.65;30.98
77897;BME280;67092;64.282;21.056;2023-07-13T01:13:11;100683.69;;;24.87;31.00
77897;BME280;67092;64.282;21.056;2023-07-13T01:15:38;100681.38;;;24.84;30.99
77897;BME280;67092;64.282;21.056;2023-07-13T01:18:03;100684.03;;;24.78;30.79
77897;BME280;67092;64.282;21.056;2023-07-13T01:20:28;100685.01;;;25.14;30.90
77897;BME280;67092;64.282;21.056;2023-07-13T01:22:53;100683.87;;;24.65;30.90
77897;BME280;67092;64.282;21.056;2023-07-13T01:25:19;100681.23;;;24.79;31.03
77897;BME280;67092;64.282;21.056;2023-07-13T01:27:44;100681.22;;;24.57;31.00
77897;BME280;67092;64.282;21.056;2023-07-13T01:30:10;100677.71;;;24.62;30.92
77897;BME280;67092;64.282;21.056;2023-07-13T01:32:35;100677.28;;;24.58;31.00
77897;BME280;67092;64.282;21.056;2023-07-13T01:35:00;100670.51;;;24.96;31.09
77897;BME280;67092;64.282;21.056;2023-07-13T01:37:26;100668.17;;;24.80;31.27
77897;BME280;67092;64.282;21.056;2023-07-13T01:39:52;100665.01;;;24.35;31.27
77897;BME280;67092;64.282;21.056;2023-07-13T01:42:17;100667.68;;;24.69;31.12
77897;BME280;67092;64.282;21.056;2023-07-13T01:44:43;100665.82;;;24.44;31.12
77897;BME280;67092;64.282;21.056;2023-07-13T01:47:09;100666.86;;;24.44;31.10
77897;BME280;67092;64.282;21.056;2023-07-13T01:49:34;100667.07;;;24.72;31.04
77897;BME280;67092;64.282;21.056;2023-07-13T01:51:59;100663.93;;;24.23;31.32
77897;BME280;67092;64.282;21.056;2023-07-13T01:54:25;100661.99;;;24.39;31.17
77897;BME280;67092;64.282;21.056;2023-07-13T01:56:51;100660.79;;;24.48;31.03
77897;BME280;67092;64.282;21.056;2023-07-13T01:59:16;100659.85;;;24.54;31.01
77897;BME280;67092;64.282;21.056;2023-07-13T02:01:42;100655.37;;;24.34;31.33
77897;BME280;67092;64.282;21.056;2023-07-13T02:04:07;100654.72;;;24.11;31.65
77897;BME280;67092;64.282;21.056;2023-07-13T02:06:33;100659.01;;;24.57;31.08
77897;BME280;67092;64.282;21.056;2023-07-13T02:08:59;100657.43;;;25.00;31.13
77897;BME280;67092;64.282;21.056;2023-07-13T02:11:24;100655.81;;;24.61;31.30
77897;BME280;67092;64.282;21.056;2023-07-13T02:13:50;100655.67;;;25.04;31.16
77897;BME280;67092;64.282;21.056;2023-07-13T02:16:15;100652.99;;;24.98;31.22
77897;BME280;67092;64.282;21.056;2023-07-13T02:18:41;100653.64;;;24.69;31.28
77897;BME280;67092;64.282;21.056;2023-07-13T02:21:06;100651.74;;;24.95;31.00
77897;BME280;67092;64.282;21.056;2023-07-13T02:23:32;100647.59;;;24.91;31.04
77897;BME280;67092;64.282;21.056;2023-07-13T02:25:58;100644.74;;;24.69;31.01
77897;BME280;67092;64.282;21.056;2023-07-13T02:28:22;100643.93;;;25.01;31.22
77897;BME280;67092;64.282;21.056;2023-07-13T02:30:48;100639.64;;;24.55;31.14
77897;BME280;67092;64.282;21.056;2023-07-13T02:33:13;100642.72;;;25.11;31.07
77897;BME280;67092;64.282;21.056;2023-07-13T02:35:39;100639.05;;;24.99;31.21
77897;BME280;67092;64.282;21.056;2023-07-13T02:38:05;100637.09;;;24.47;31.24
77897;BME280;67092;64.282;21.056;2023-07-13T02:40:30;100639.94;;;24.59;31.12
77897;BME280;67092;64.282;21.056;2023-07-13T02:42:55;100636.49;;;24.64;31.33
77897;BME280;67092;64.282;21.056;2023-07-13T02:45:21;100638.70;;;24.86;31.33
77897;BME280;67092;64.282;21.056;2023-07-13T02:47:46;100635.18;;;24.50;31.47
77897;BME280;67092;64.282;21.056;2023-07-13T02:50:12;100634.19;;;24.63;31.28
77897;BME280;67092;64.282;21.056;2023-07-13T02:52:38;100634.73;;;24.41;31.30
77897;BME280;67092;64.282;21.056;2023-07-13T02:55:03;100633.59;;;24.68;31.24
77897;BME280;67092;64.282;21.056;2023-07-13T02:57:29;100634.62;;;24.39;31.28
77897;BME280;67092;64.282;21.056;2023-07-13T02:59:54;100630.20;;;24.38;31.30
77897;BME280;67092;64.282;21.056;2023-07-13T03:02:20;100628.24;;;24.44;31.50
77897;BME280;67092;64.282;21.056;2023-07-13T03:04:45;100629.01;;;24.72;31.45
77897;BME280;67092;64.282;21.056;2023-07-13T03:07:11;100631.10;;;24.92;31.22
77897;BME280;67092;64.282;21.056;2023-07-13T03:09:37;100625.49;;;24.69;31.46
77897;BME280;67092;64.282;21.056;2023-07-13T03:12:03;100625.35;;;24.55;31.35
77897;BME280;67092;64.282;21.056;2023-07-13T03:14:28;100625.49;;;24.41;31.25
77897;BME280;67092;64.282;21.056;2023-07-13T03:16:53;100626.94;;;24.35;31.28
77897;BME280;67092;64.282;21.056;2023-07-13T03:19:19;100623.50;;;24.72;31.16
77897;BME280;67092;64.282;21.056;2023-07-13T03:21:44;100620.21;;;24.82;31.35
77897;BME280;67092;64.282;21.056;2023-07-13T03:24:10;100616.56;;;24.82;31.34
77897;BME280;67092;64.282;21.056;2023-07-13T03:26:36;100614.33;;;24.30;31.39
77897;BME280;67092;64.282;21.056;2023-07-13T03:29:01;100611.93;;;24.34;31.33
77897;BME280;67092;64.282;21.056;2023-07-13T03:31:28;100605.62;;;24.23;31.45
77897;BME280;67092;64.282;21.056;2023-07-13T03:33:52;100599.83;;;24.72;31.45
77897;BME280;67092;64.282;21.056;2023-07-13T03:36:19;100600.74;;;24.57;31.41
77897;BME280;67092;64.282;21.056;2023-07-13T03:38:43;100598.62;;;24.27;31.47
77897;BME280;67092;64.282;21.056;2023-07-13T03:41:09;100593.63;;;24.52;31.44
77897;BME280;67092;64.282;21.056;2023-07-13T03:43:34;100592.62;;;24.20;31.57
77897;BME280;67092;64.282;21.056;2023-07-13T03:46:00;100587.06;;;24.54;31.46
77897;BME280;67092;64.282;21.056;2023-07-13T03:48:25;100587.78;;;24.40;31.37
77897;BME280;67092;64.282;21.056;2023-07-13T03:50:51;100588.10;;;24.85;31.37
77897;BME280;67092;64.282;21.056;2023-07-13T03:53:17;100586.78;;;24.51;31.52
77897;BME280;67092;64.282;21.056;2023-07-13T03:55:42;100582.40;;;24.08;31.78
77897;BME280;67092;64.282;21.056;2023-07-13T03:58:24;100580.38;;;24.27;31.89
77897;BME280;67092;64.282;21.056;2023-07-13T04:00:33;100569.26;;;24.70;31.64
77897;BME280;67092;64.282;21.056;2023-07-13T04:02:59;100571.12;;;24.49;31.66
77897;BME280;67092;64.282;21.056;2023-07-13T04:05:24;100567.20;;;24.69;31.70
77897;BME280;67092;64.282;21.056;2023-07-13T04:07:50;100565.01;;;24.57;31.57
77897;BME280;67092;64.282;21.056;2023-07-13T04:10:16;100564.87;;;24.86;31.53
77897;BME280;67092;64.282;21.056;2023-07-13T04:12:41;100562.46;;;24.77;31.67
77897;BME280;67092;64.282;21.056;2023-07-13T04:15:08;100565.91;;;24.61;31.59
77897;BME280;67092;64.282;21.056;2023-07-13T04:17:32;100565.58;;;24.72;31.76
77897;BME280;67092;64.282;21.056;2023-07-13T04:19:58;100565.75;;;24.24;31.78
77897;BME280;67092;64.282;21.056;2023-07-13T04:22:24;100569.03;;;24.66;31.90
77897;BME280;67092;64.282;21.056;2023-07-13T04:24:49;100569.60;;;24.60;31.71
77897;BME280;67092;64.282;21.056;2023-07-13T04:27:15;100569.93;;;24.87;31.70
77897;BME280;67092;64.282;21.056;2023-07-13T04:29:40;100567.34;;;24.57;31.81
77897;BME280;67092;64.282;21.056;2023-07-13T04:32:07;100564.92;;;24.79;31.60
77897;BME280;67092;64.282;21.056;2023-07-13T04:34:32;100562.44;;;24.46;32.01
77897;BME280;67092;64.282;21.056;2023-07-13T04:36:57;100556.21;;;24.75;31.72
77897;BME280;67092;64.282;21.056;2023-07-13T04:39:23;100555.74;;;24.37;32.22
77897;BME280;67092;64.282;21.056;2023-07-13T04:41:48;100553.11;;;24.52;32.08
77897;BME280;67092;64.282;21.056;2023-07-13T04:44:14;100557.21;;;24.42;32.22
77897;BME280;67092;64.282;21.056;2023-07-13T04:46:40;100556.04;;;24.34;32.06
77897;BME280;67092;64.282;21.056;2023-07-13T04:49:05;100554.37;;;24.52;32.15
77897;BME280;67092;64.282;21.056;2023-07-13T04:51:31;100553.09;;;24.83;31.81
77897;BME280;67092;64.282;21.056;2023-07-13T04:53:56;100554.22;;;24.64;31.79
77897;BME280;67092;64.282;21.056;2023-07-13T04:56:22;100551.61;;;25.15;31.74
77897;BME280;67092;64.282;21.056;2023-07-13T04:58:47;100551.44;;;24.79;31.93
77897;BME280;67092;64.282;21.056;2023-07-13T05:01:13;100548.41;;;25.00;32.03
77897;BME280;67092;64.282;21.056;2023-07-13T05:03:39;100550.66;;;25.01;32.12
77897;BME280;67092;64.282;21.056;2023-07-13T05:06:07;100551.29;;;24.79;32.27
77897;BME280;67092;64.282;21.056;2023-07-13T05:08:30;100550.91;;;24.94;32.21
77897;BME280;67092;64.282;21.056;2023-07-13T05:10:55;100547.80;;;24.86;32.41
77897;BME280;67092;64.282;21.056;2023-07-13T05:13:21;100546.77;;;24.67;32.45
77897;BME280;67092;64.282;21.056;2023-07-13T05:15:52;100548.34;;;24.59;32.67
77897;BME280;67092;64.282;21.056;2023-07-13T05:18:12;100548.29;;;25.05;32.75
77897;BME280;67092;64.282;21.056;2023-07-13T05:20:38;100550.70;;;24.50;32.84
77897;BME280;67092;64.282;21.056;2023-07-13T05:23:03;100556.07;;;24.88;32.74
77897;BME280;67092;64.282;21.056;2023-07-13T05:25:29;100556.39;;;24.71;32.94
77897;BME280;67092;64.282;21.056;2023-07-13T05:27:54;100553.92;;;24.82;32.51
77897;BME280;67092;64.282;21.056;2023-07-13T05:30:20;100549.38;;;24.91;32.42
77897;BME280;67092;64.282;21.056;2023-07-13T05:32:45;100548.53;;;24.84;32.52
77897;BME280;67092;64.282;21.056;2023-07-13T05:35:11;100549.33;;;24.68;32.69
77897;BME280;67092;64.282;21.056;2023-07-13T05:37:38;100547.63;;;24.82;32.50
77897;BME280;67092;64.282;21.056;2023-07-13T05:40:02;100546.83;;;24.98;32.32
77897;BME280;67092;64.282;21.056;2023-07-13T05:42:28;100546.51;;;24.69;32.64
77897;BME280;67092;64.282;21.056;2023-07-13T05:44:53;100544.16;;;24.88;32.46
77897;BME280;67092;64.282;21.056;2023-07-13T05:47:19;100540.57;;;24.96;32.32
77897;BME280;67092;64.282;21.056;2023-07-13T05:49:44;100536.11;;;24.50;32.85
77897;BME280;67092;64.282;21.056;2023-07-13T05:52:10;100528.86;;;24.78;32.64
77897;BME280;67092;64.282;21.056;2023-07-13T05:54:36;100527.43;;;24.72;32.86
77897;BME280;67092;64.282;21.056;2023-07-13T05:57:01;100521.28;;;25.05;32.88
77897;BME280;67092;64.282;21.056;2023-07-13T05:59:27;100516.33;;;24.86;33.07
77897;BME280;67092;64.282;21.056;2023-07-13T06:01:52;100517.35;;;24.05;34.41
77897;BME280;67092;64.282;21.056;2023-07-13T06:04:18;100505.38;;;24.75;34.11
77897;BME280;67092;64.282;21.056;2023-07-13T06:06:43;100504.91;;;24.70;34.41
77897;BME280;67092;64.282;21.056;2023-07-13T06:09:09;100506.24;;;24.67;34.17
77897;BME280;67092;64.282;21.056;2023-07-13T06:11:35;100506.45;;;24.67;34.12
77897;BME280;67092;64.282;21.056;2023-07-13T06:14:00;100506.47;;;24.81;33.83
77897;BME280;67092;64.282;21.056;2023-07-13T06:16:26;100506.08;;;24.47;33.63
77897;BME280;67092;64.282;21.056;2023-07-13T06:18:51;100503.35;;;24.31;33.96
77897;BME280;67092;64.282;21.056;2023-07-13T06:21:19;100506.16;;;23.96;34.25
77897;BME280;67092;64.282;21.056;2023-07-13T06:23:43;100501.08;;;24.21;33.84
77897;BME280;67092;64.282;21.056;2023-07-13T06:26:09;100501.54;;;24.03;33.90
77897;BME280;67092;64.282;21.056;2023-07-13T06:28:34;100499.65;;;24.13;33.73
77897;BME280;67092;64.282;21.056;2023-07-13T06:31:00;100499.75;;;24.37;33.53
77897;BME280;67092;64.282;21.056;2023-07-13T06:33:25;100501.02;;;24.01;33.64
77897;BME280;67092;64.282;21.056;2023-07-13T06:35:51;100501.87;;;23.99;33.54
77897;BME280;67092;64.282;21.056;2023-07-13T06:38:16;100499.13;;;24.00;33.46
77897;BME280;67092;64.282;21.056;2023-07-13T06:40:42;100504.34;;;23.92;33.78
77897;BME280;67092;64.282;21.056;2023-07-13T06:43:07;100501.50;;;24.15;33.41
77897;BME280;67092;64.282;21.056;2023-07-13T06:45:35;100499.70;;;23.70;33.53
77897;BME280;67092;64.282;21.056;2023-07-13T06:47:59;100497.64;;;23.71;33.46
77897;BME280;67092;64.282;21.056;2023-07-13T06:50:24;100491.30;;;24.18;33.35
77897;BME280;67092;64.282;21.056;2023-07-13T06:52:49;100491.99;;;23.78;33.17
77897;BME280;67092;64.282;21.056;2023-07-13T06:55:15;100499.42;;;24.13;33.08
77897;BME280;67092;64.282;21.056;2023-07-13T06:57:41;100492.09;;;23.90;33.35
77897;BME280;67092;64.282;21.056;2023-07-13T07:00:07;100495.18;;;23.62;33.39
77897;BME280;67092;64.282;21.056;2023-07-13T07:02:32;100493.24;;;23.75;33.18
77897;BME280;67092;64.282;21.056;2023-07-13T07:04:57;100490.36;;;24.08;33.01
77897;BME280;67092;64.282;21.056;2023-07-13T07:07:24;100485.67;;;24.25;32.78
77897;BME280;67092;64.282;21.056;2023-07-13T07:09:49;100484.87;;;23.85;32.99
77897;BME280;67092;64.282;21.056;2023-07-13T07:12:14;100485.16;;;23.69;33.06
77897;BME280;67092;64.282;21.056;2023-07-13T07:14:40;100484.67;;;23.88;32.89
77897;BME280;67092;64.282;21.056;2023-07-13T07:17:05;100482.92;;;24.24;32.84
77897;BME280;67092;64.282;21.056;2023-07-13T07:19:31;100484.14;;;23.97;32.82
77897;BME280;67092;64.282;21.056;2023-07-13T07:21:57;100481.77;;;23.98;32.75
77897;BME280;67092;64.282;21.056;2023-07-13T07:24:22;100484.60;;;23.91;32.72
77897;BME280;67092;64.282;21.056;2023-07-13T07:26:48;100488.58;;;23.87;32.64
77897;BME280;67092;64.282;21.056;2023-07-13T07:29:13;100486.50;;;24.10;32.30
77897;BME280;67092;64.282;21.056;2023-07-13T07:31:39;100485.42;;;24.20;32.32
77897;BME280;67092;64.282;21.056;2023-07-13T07:34:04;100487.09;;;23.86;32.06
77897;BME280;67092;64.282;21.056;2023-07-13T07:36:30;100481.93;;;23.78;32.05
77897;BME280;67092;64.282;21.056;2023-07-13T07:38:56;100481.98;;;23.94;32.11
77897;BME280;67092;64.282;21.056;2023-07-13T07:41:21;100482.01;;;23.68;31.95
77897;BME280;67092;64.282;21.056;2023-07-13T07:43:47;100481.81;;;23.67;32.28
77897;BME280;67092;64.282;21.056;2023-07-13T07:46:12;100480.25;;;23.65;32.25
77897;BME280;67092;64.282;21.056;2023-07-13T07:48:38;100480.55;;;23.97;32.06
77897;BME280;67092;64.282;21.056;2023-07-13T07:51:03;100481.12;;;23.72;31.98
77897;BME280;67092;64.282;21.056;2023-07-13T07:53:29;100480.86;;;23.55;31.84
77897;BME280;67092;64.282;21.056;2023-07-13T07:55:54;100479.31;;;23.83;31.76
77897;BME280;67092;64.282;21.056;2023-07-13T07:58:20;100475.81;;;23.60;31.92
77897;BME280;67092;64.282;21.056;2023-07-13T08:00:46;100474.83;;;23.78;32.00
77897;BME280;67092;64.282;21.056;2023-07-13T08:03:11;100480.24;;;23.45;31.82
77897;BME280;67092;64.282;21.056;2023-07-13T08:05:37;100483.75;;;23.74;31.84
77897;BME280;67092;64.282;21.056;2023-07-13T08:08:02;100480.00;;;24.00;31.67
77897;BME280;67092;64.282;21.056;2023-07-13T08:10:28;100478.22;;;23.67;31.70
77897;BME280;67092;64.282;21.056;2023-07-13T08:12:53;100477.42;;;23.34;31.92
77897;BME280;67092;64.282;21.056;2023-07-13T08:15:19;100480.80;;;23.87;31.45
77897;BME280;67092;64.282;21.056;2023-07-13T08:17:45;100478.19;;;23.94;31.34
77897;BME280;67092;64.282;21.056;2023-07-13T08:20:10;100477.54;;;23.56;31.77
77897;BME280;67092;64.282;21.056;2023-07-13T08:22:36;100476.31;;;23.77;31.60
77897;BME280;67092;64.282;21.056;2023-07-13T08:25:01;100479.12;;;23.83;31.65
77897;BME280;67092;64.282;21.056;2023-07-13T08:27:28;100478.91;;;23.49;31.84
77897;BME280;67092;64.282;21.056;2023-07-13T08:29:53;100476.97;;;23.73;31.76
77897;BME280;67092;64.282;21.056;2023-07-13T08:32:19;100476.00;;;23.75;31.66
77897;BME280;67092;64.282;21.056;2023-07-13T08:34:44;100474.56;;;23.52;31.56
77897;BME280;67092;64.282;21.056;2023-07-13T08:37:09;100473.13;;;23.50;31.61
77897;BME280;67092;64.282;21.056;2023-07-13T08:39:35;100471.18;;;23.90;31.68
77897;BME280;67092;64.282;21.056;2023-07-13T08:42:03;100468.54;;;23.64;31.70
77897;BME280;67092;64.282;21.056;2023-07-13T08:44:32;100470.96;;;23.85;31.42
77897;BME280;67092;64.282;21.056;2023-07-13T08:46:53;100469.68;;;23.85;31.32
77897;BME280;67092;64.282;21.056;2023-07-13T08:49:21;100474.13;;;23.58;31.36
77897;BME280;67092;64.282;21.056;2023-07-13T08:51:45;100472.48;;;23.72;31.46
77897;BME280;67092;64.282;21.056;2023-07-13T08:54:18;100469.64;;;23.77;31.45
77897;BME280;67092;64.282;21.056;2023-07-13T08:56:34;100468.20;;;23.57;31.57
77897;BME280;67092;64.282;21.056;2023-07-13T08:59:05;100467.16;;;23.81;31.87
77897;BME280;67092;64.282;21.056;2023-07-13T09:01:32;100466.54;;;23.81;31.83
77897;BME280;67092;64.282;21.056;2023-07-13T09:03:57;100464.05;;;24.08;31.80
77897;BME280;67092;64.282;21.056;2023-07-13T09:06:17;100463.36;;;23.90;31.81
77897;BME280;67092;64.282;21.056;2023-07-13T09:08:49;100465.04;;;23.72;32.02
77897;BME280;67092;64.282;21.056;2023-07-13T09:11:20;100465.76;;;23.98;31.97
77897;BME280;67092;64.282;21.056;2023-07-13T09:13:40;100466.63;;;23.77;31.90
77897;BME280;67092;64.282;21.056;2023-07-13T09:15:59;100462.00;;;23.57;31.82
77897;BME280;67092;64.282;21.056;2023-07-13T09:18:28;100462.35;;;23.59;31.79
77897;BME280;67092;64.282;21.056;2023-07-13T09:20:52;100458.15;;;23.50;32.20
77897;BME280;67092;64.282;21.056;2023-07-13T09:23:19;100460.92;;;23.79;31.81
77897;BME280;67092;64.282;21.056;2023-07-13T09:25:42;100459.92;;;23.88;31.74
77897;BME280;67092;64.282;21.056;2023-07-13T09:28:13;100464.24;;;23.55;31.76
77897;BME280;67092;64.282;21.056;2023-07-13T09:30:38;100463.92;;;23.98;31.84
77897;BME280;67092;64.282;21.056;2023-07-13T09:32:58;100462.30;;;23.94;31.88
77897;BME280;67092;64.282;21.056;2023-07-13T09:35:27;100461.82;;;24.01;31.82
77897;BME280;67092;64.282;21.056;2023-07-13T09:37:49;100464.89;;;23.96;31.82
77897;BME280;67092;64.282;21.056;2023-07-13T09:40:20;100464.31;;;23.59;31.96
77897;BME280;67092;64.282;21.056;2023-07-13T09:42:40;100465.01;;;23.85;31.93
77897;BME280;67092;64.282;21.056;2023-07-13T09:45:06;100464.50;;;23.23;33.08
77897;BME280;67092;64.282;21.056;2023-07-13T09:47:39;100468.03;;;23.33;33.40
77897;BME280;67092;64.282;21.056;2023-07-13T09:50:00;100462.92;;;23.26;33.78
77897;BME280;67092;64.282;21.056;2023-07-13T09:52:22;100464.41;;;23.05;34.30
77897;BME280;67092;64.282;21.056;2023-07-13T09:54:50;100460.98;;;23.13;34.47
77897;BME280;67092;64.282;21.056;2023-07-13T09:57:23;100464.67;;;23.30;34.45
77897;BME280;67092;64.282;21.056;2023-07-13T09:59:42;100465.64;;;23.20;34.77
77897;BME280;67092;64.282;21.056;2023-07-13T10:04:33;100468.00;;;23.32;34.99
77897;BME280;67092;64.282;21.056;2023-07-13T10:07:04;100465.13;;;23.32;35.19
77897;BME280;67092;64.282;21.056;2023-07-13T10:09:22;100463.08;;;23.45;35.18
77897;BME280;67092;64.282;21.056;2023-07-13T10:11:50;100463.17;;;23.27;35.55
77897;BME280;67092;64.282;21.056;2023-07-13T10:14:15;100464.96;;;23.46;35.49
77897;BME280;67092;64.282;21.056;2023-07-13T10:16:39;100463.54;;;23.60;35.76
77897;BME280;67092;64.282;21.056;2023-07-13T10:19:09;100461.89;;;22.64;36.26
77897;BME280;67092;64.282;21.056;2023-07-13T10:21:34;100456.90;;;23.36;36.03
77897;BME280;67092;64.282;21.056;2023-07-13T10:23:58;100460.17;;;23.45;36.05
77897;BME280;67092;64.282;21.056;2023-07-13T10:26:25;100459.73;;;23.59;35.93
77897;BME280;67092;64.282;21.056;2023-07-13T10:28:52;100461.95;;;23.40;36.33
77897;BME280;67092;64.282;21.056;2023-07-13T10:31:14;100463.75;;;23.54;36.28
77897;BME280;67092;64.282;21.056;2023-07-13T10:33:38;100461.79;;;23.51;36.47
77897;BME280;67092;64.282;21.056;2023-07-13T10:36:12;100464.41;;;23.62;36.38
77897;BME280;67092;64.282;21.056;2023-07-13T10:38:29;100469.49;;;23.33;36.63
77897;BME280;67092;64.282;21.056;2023-07-13T10:41:03;100467.56;;;23.55;36.75
77897;BME280;67092;64.282;21.056;2023-07-13T10:43:25;100466.64;;;23.34;36.72
77897;BME280;67092;64.282;21.056;2023-07-13T10:45:47;100467.09;;;23.77;36.51
77897;BME280;67092;64.282;21.056;2023-07-13T10:48:13;100466.76;;;23.12;36.79
77897;BME280;67092;64.282;21.056;2023-07-13T10:50:38;100467.22;;;23.81;36.54
77897;BME280;67092;64.282;21.056;2023-07-13T10:53:16;100467.50;;;23.56;36.87
77897;BME280;67092;64.282;21.056;2023-07-13T10:55:34;100466.77;;;23.72;36.73
77897;BME280;67092;64.282;21.056;2023-07-13T10:57:53;100465.93;;;23.50;36.75
77897;BME280;67092;64.282;21.056;2023-07-13T11:00:19;100465.66;;;23.74;36.78
77897;BME280;67092;64.282;21.056;2023-07-13T11:05:25;100463.73;;;23.43;36.95
77897;BME280;67092;64.282;21.056;2023-07-13T11:10:05;100459.85;;;23.85;36.40
77897;BME280;67092;64.282;21.056;2023-07-13T11:15:04;100457.36;;;23.81;36.49
77897;BME280;67092;64.282;21.056;2023-07-13T11:17:35;100456.83;;;23.71;36.66
77897;BME280;67092;64.282;21.056;2023-07-13T11:19:43;100456.41;;;23.76;36.64
77897;BME280;67092;64.282;21.056;2023-07-13T11:22:16;100450.36;;;23.98;36.35
77897;BME280;67092;64.282;21.056;2023-07-13T11:24:49;100454.42;;;24.01;36.65
77897;BME280;67092;64.282;21.056;2023-07-13T11:29:33;100449.03;;;23.95;36.62
77897;BME280;67092;64.282;21.056;2023-07-13T11:31:52;100449.28;;;23.96;36.75
77897;BME280;67092;64.282;21.056;2023-07-13T11:34:18;100453.82;;;23.95;36.75
77897;BME280;67092;64.282;21.056;2023-07-13T11:36:44;100455.82;;;23.79;37.01
77897;BME280;67092;64.282;21.056;2023-07-13T11:39:17;100460.44;;;23.86;37.01
77897;BME280;67092;64.282;21.056;2023-07-13T11:41:37;100463.34;;;24.08;37.03
77897;BME280;67092;64.282;21.056;2023-07-13T11:44:07;100459.42;;;24.05;37.09
77897;BME280;67092;64.282;21.056;2023-07-13T11:46:26;100463.68;;;24.05;37.09
77897;BME280;67092;64.282;21.056;2023-07-13T11:48:51;100466.78;;;23.83;37.12
77897;BME280;67092;64.282;21.056;2023-07-13T11:51:21;100462.59;;;23.67;37.35
77897;BME280;67092;64.282;21.056;2023-07-13T11:53:46;100461.30;;;24.14;36.99
77897;BME280;67092;64.282;21.056;2023-07-13T11:56:07;100462.90;;;23.74;37.26
77897;BME280;67092;64.282;21.056;2023-07-13T11:58:33;100461.23;;;23.80;37.20
77897;BME280;67092;64.282;21.056;2023-07-13T12:01:00;100459.64;;;23.66;37.40
77897;BME280;67092;64.282;21.056;2023-07-13T12:03:25;100458.93;;;24.10;37.13
77897;BME280;67092;64.282;21.056;2023-07-13T12:05:57;100455.73;;;23.62;37.14
77897;BME280;67092;64.282;21.056;2023-07-13T12:08:17;100456.54;;;24.18;37.05
77897;BME280;67092;64.282;21.056;2023-07-13T12:10:40;100457.16;;;24.07;36.89
77897;BME280;67092;64.282;21.056;2023-07-13T12:13:08;100458.17;;;24.03;36.96
77897;BME280;67092;64.282;21.056;2023-07-13T12:15:38;100454.86;;;24.01;36.97
77897;BME280;67092;64.282;21.056;2023-07-13T12:17:57;100458.27;;;23.87;37.16
77897;BME280;67092;64.282;21.056;2023-07-13T12:20:26;100453.45;;;23.61;37.25
77897;BME280;67092;64.282;21.056;2023-07-13T12:22:49;100452.07;;;24.17;37.13
77897;BME280;67092;64.282;21.056;2023-07-13T12:25:15;100447.98;;;24.33;36.91
77897;BME280;67092;64.282;21.056;2023-07-13T12:27:39;100450.75;;;23.94;36.76
77897;BME280;67092;64.282;21.056;2023-07-13T12:32:31;100444.75;;;24.13;36.84
77897;BME280;67092;64.282;21.056;2023-07-13T12:37:22;100440.66;;;24.19;37.10
77897;BME280;67092;64.282;21.056;2023-07-13T12:39:48;100442.14;;;24.09;36.89
77897;BME280;67092;64.282;21.056;2023-07-13T12:42:20;100442.22;;;23.82;36.94
77897;BME280;67092;64.282;21.056;2023-07-13T12:44:41;100444.49;;;24.38;36.82
77897;BME280;67092;64.282;21.056;2023-07-13T12:47:06;100445.68;;;24.06;36.93